sensor_id;sensor_type;location;lat;lon;timestamp;pressure;altitude;pressure_sealevel;temperature;humidity
60465;BME280;46314;52.392;9.758;2023-05-20T00:01:33;101811.63;;;13.61;54.53
60465;BME280;46314;52.392;9.758;2023-05-20T00:03:59;101811.22;;;13.73;54.12
60465;BME280;46314;52.392;9.758;2023-05-20T00:06:26;101813.25;;;13.68;54.36
60465;BME280;46314;52.392;9.758;2023-05-20T00:08:53;101810.78;;;13.61;54.50
60465;BME280;46314;52.392;9.758;2023-05-20T00:11:19;101812.31;;;13.77;54.29
60465;BME280;46314;52.392;9.758;2023-05-20T00:13:45;101808.34;;;13.83;54.01
60465;BME280;46314;52.392;9.758;2023-05-20T00:16:13;101805.16;;;13.66;54.27
60465;BME280;46314;52.392;9.758;2023-05-20T00:18:40;101802.84;;;13.73;54.40
60465;BME280;46314;52.392;9.758;2023-05-20T00:21:06;101802.16;;;13.33;55.37
60465;BME280;46314;52.392;9.758;2023-05-20T00:23:32;101806.28;;;13.36;55.29
60465;BME280;46314;52.392;9.758;2023-05-20T00:25:59;101807.66;;;13.38;55.36
60465;BME280;46314;52.392;9.758;2023-05-20T00:28:26;101798.34;;;13.14;56.10
60465;BME280;46314;52.392;9.758;2023-05-20T00:30:53;101802.72;;;13.25;55.66
60465;BME280;46314;52.392;9.758;2023-05-20T00:33:21;101804.66;;;12.90;56.58
60465;BME280;46314;52.392;9.758;2023-05-20T00:35:48;101796.25;;;13.30;55.69
60465;BME280;46314;52.392;9.758;2023-05-20T00:38:14;101802.72;;;13.25;55.70
60465;BME280;46314;52.392;9.758;2023-05-20T00:40:40;101797.00;;;13.11;55.94
60465;BME280;46314;52.392;9.758;2023-05-20T00:43:09;101791.09;;;13.18;55.74
60465;BME280;46314;52.392;9.758;2023-05-20T00:45:36;101791.28;;;13.32;55.19
60465;BME280;46314;52.392;9.758;2023-05-20T00:48:03;101795.56;;;13.14;55.65
60465;BME280;46314;52.392;9.758;2023-05-20T00:50:31;101798.38;;;12.74;56.48
60465;BME280;46314;52.392;9.758;2023-05-20T00:52:58;101792.25;;;12.72;56.68
60465;BME280;46314;52.392;9.758;2023-05-20T00:55:24;101791.59;;;13.25;55.41
60465;BME280;46314;52.392;9.758;2023-05-20T00:57:51;101801.03;;;12.95;55.99
60465;BME280;46314;52.392;9.758;2023-05-20T01:00:18;101799.41;;;12.83;56.34
60465;BME280;46314;52.392;9.758;2023-05-20T01:02:45;101794.91;;;13.61;54.37
60465;BME280;46314;52.392;9.758;2023-05-20T01:05:12;101790.19;;;13.22;54.90
60465;BME280;46314;52.392;9.758;2023-05-20T01:07:40;101803.50;;;12.96;55.81
60465;BME280;46314;52.392;9.758;2023-05-20T01:10:07;101804.25;;;13.12;55.11
60465;BME280;46314;52.392;9.758;2023-05-20T01:12:36;101794.72;;;12.79;56.01
60465;BME280;46314;52.392;9.758;2023-05-20T01:15:07;101791.25;;;12.97;55.64
60465;BME280;46314;52.392;9.758;2023-05-20T01:17:37;101794.25;;;13.06;55.46
60465;BME280;46314;52.392;9.758;2023-05-20T01:20:05;101800.66;;;13.01;55.39
60465;BME280;46314;52.392;9.758;2023-05-20T01:22:36;101794.59;;;12.94;55.34
60465;BME280;46314;52.392;9.758;2023-05-20T01:25:02;101795.00;;;12.77;55.83
60465;BME280;46314;52.392;9.758;2023-05-20T01:27:29;101788.34;;;12.73;55.71
60465;BME280;46314;52.392;9.758;2023-05-20T01:29:56;101789.22;;;12.68;56.21
60465;BME280;46314;52.392;9.758;2023-05-20T01:32:26;101789.09;;;12.84;55.60
60465;BME280;46314;52.392;9.758;2023-05-20T01:34:54;101787.81;;;13.11;54.63
60465;BME280;46314;52.392;9.758;2023-05-20T01:37:22;101795.50;;;12.90;55.20
60465;BME280;46314;52.392;9.758;2023-05-20T01:39:52;101785.97;;;12.56;56.05
60465;BME280;46314;52.392;9.758;2023-05-20T01:42:19;101785.09;;;12.56;56.05
60465;BME280;46314;52.392;9.758;2023-05-20T01:44:46;101780.00;;;12.68;55.49
60465;BME280;46314;52.392;9.758;2023-05-20T01:47:13;101780.91;;;12.63;55.58
60465;BME280;46314;52.392;9.758;2023-05-20T01:49:39;101774.38;;;12.39;56.30
60465;BME280;46314;52.392;9.758;2023-05-20T01:52:06;101779.66;;;12.35;55.96
60465;BME280;46314;52.392;9.758;2023-05-20T01:54:32;101781.81;;;12.48;56.25
60465;BME280;46314;52.392;9.758;2023-05-20T01:57:00;101776.97;;;12.64;55.73
60465;BME280;46314;52.392;9.758;2023-05-20T01:59:26;101771.38;;;12.20;56.53
60465;BME280;46314;52.392;9.758;2023-05-20T02:01:53;101771.91;;;12.27;56.25
60465;BME280;46314;52.392;9.758;2023-05-20T02:04:19;101772.72;;;12.32;56.43
60465;BME280;46314;52.392;9.758;2023-05-20T02:06:46;101769.31;;;12.46;56.19
60465;BME280;46314;52.392;9.758;2023-05-20T02:09:12;101773.72;;;12.52;56.15
60465;BME280;46314;52.392;9.758;2023-05-20T02:11:39;101774.91;;;12.41;56.42
60465;BME280;46314;52.392;9.758;2023-05-20T02:14:07;101774.66;;;12.32;56.64
60465;BME280;46314;52.392;9.758;2023-05-20T02:16:33;101774.41;;;12.28;56.66
60465;BME280;46314;52.392;9.758;2023-05-20T02:19:00;101773.94;;;12.06;57.40
60465;BME280;46314;52.392;9.758;2023-05-20T02:21:26;101772.88;;;11.97;57.52
60465;BME280;46314;52.392;9.758;2023-05-20T02:23:53;101767.44;;;12.31;56.64
60465;BME280;46314;52.392;9.758;2023-05-20T02:26:19;101768.09;;;12.12;57.45
60465;BME280;46314;52.392;9.758;2023-05-20T02:28:46;101759.97;;;12.26;57.24
60465;BME280;46314;52.392;9.758;2023-05-20T02:31:13;101765.91;;;11.94;57.87
60465;BME280;46314;52.392;9.758;2023-05-20T02:33:40;101769.72;;;12.13;57.37
60465;BME280;46314;52.392;9.758;2023-05-20T02:36:06;101765.25;;;12.28;56.85
60465;BME280;46314;52.392;9.758;2023-05-20T02:38:33;101762.22;;;12.19;57.01
60465;BME280;46314;52.392;9.758;2023-05-20T02:40:59;101769.31;;;12.46;56.35
60465;BME280;46314;52.392;9.758;2023-05-20T02:43:26;101772.66;;;12.43;56.34
60465;BME280;46314;52.392;9.758;2023-05-20T02:45:52;101777.16;;;12.39;56.37
60465;BME280;46314;52.392;9.758;2023-05-20T02:48:20;101785.53;;;12.78;55.89
60465;BME280;46314;52.392;9.758;2023-05-20T02:50:46;101776.56;;;12.42;56.59
60465;BME280;46314;52.392;9.758;2023-05-20T02:53:13;101782.50;;;12.69;55.96
60465;BME280;46314;52.392;9.758;2023-05-20T02:55:39;101778.22;;;12.43;56.53
60465;BME280;46314;52.392;9.758;2023-05-20T02:58:06;101776.25;;;12.43;56.77
60465;BME280;46314;52.392;9.758;2023-05-20T03:00:32;101771.81;;;11.72;58.59
60465;BME280;46314;52.392;9.758;2023-05-20T03:02:59;101764.97;;;12.24;57.39
60465;BME280;46314;52.392;9.758;2023-05-20T03:05:26;101771.09;;;12.71;56.33
60465;BME280;46314;52.392;9.758;2023-05-20T03:07:53;101767.06;;;12.48;56.39
60465;BME280;46314;52.392;9.758;2023-05-20T03:10:20;101776.66;;;12.71;55.97
60465;BME280;46314;52.392;9.758;2023-05-20T03:12:46;101768.59;;;12.69;56.27
60465;BME280;46314;52.392;9.758;2023-05-20T03:15:13;101774.94;;;12.36;56.96
60465;BME280;46314;52.392;9.758;2023-05-20T03:17:39;101766.59;;;12.30;57.08
60465;BME280;46314;52.392;9.758;2023-05-20T03:20:06;101772.34;;;12.49;56.53
60465;BME280;46314;52.392;9.758;2023-05-20T03:22:34;101772.28;;;12.60;56.37
60465;BME280;46314;52.392;9.758;2023-05-20T03:25:01;101776.00;;;12.40;56.85
60465;BME280;46314;52.392;9.758;2023-05-20T03:27:27;101768.78;;;12.39;57.04
60465;BME280;46314;52.392;9.758;2023-05-20T03:29:54;101769.84;;;12.48;56.56
60465;BME280;46314;52.392;9.758;2023-05-20T03:32:20;101770.09;;;11.91;58.01
60465;BME280;46314;52.392;9.758;2023-05-20T03:34:46;101779.97;;;12.28;57.13
60465;BME280;46314;52.392;9.758;2023-05-20T03:37:13;101785.22;;;12.40;57.14
60465;BME280;46314;52.392;9.758;2023-05-20T03:39:41;101781.06;;;12.32;57.13
60465;BME280;46314;52.392;9.758;2023-05-20T03:42:07;101784.94;;;12.81;55.86
60465;BME280;46314;52.392;9.758;2023-05-20T03:44:33;101782.75;;;12.78;55.76
60465;BME280;46314;52.392;9.758;2023-05-20T03:47:00;101782.81;;;12.68;56.51
60465;BME280;46314;52.392;9.758;2023-05-20T03:49:26;101773.28;;;13.14;54.81
60465;BME280;46314;52.392;9.758;2023-05-20T03:51:53;101777.13;;;13.23;54.40
60465;BME280;46314;52.392;9.758;2023-05-20T03:54:19;101787.09;;;13.29;54.22
60465;BME280;46314;52.392;9.758;2023-05-20T03:56:47;101793.69;;;12.64;55.90
60465;BME280;46314;52.392;9.758;2023-05-20T03:59:14;101792.84;;;12.64;55.98
60465;BME280;46314;52.392;9.758;2023-05-20T04:01:40;101790.00;;;12.24;57.36
60465;BME280;46314;52.392;9.758;2023-05-20T04:04:07;101796.44;;;12.69;56.02
60465;BME280;46314;52.392;9.758;2023-05-20T04:06:33;101795.81;;;13.17;55.06
60465;BME280;46314;52.392;9.758;2023-05-20T04:09:00;101793.69;;;12.64;56.45
60465;BME280;46314;52.392;9.758;2023-05-20T04:11:26;101791.41;;;12.72;56.34
60465;BME280;46314;52.392;9.758;2023-05-20T04:13:54;101790.50;;;12.42;57.04
60465;BME280;46314;52.392;9.758;2023-05-20T04:16:20;101790.91;;;12.64;56.81
60465;BME280;46314;52.392;9.758;2023-05-20T04:18:47;101789.25;;;12.63;56.54
60465;BME280;46314;52.392;9.758;2023-05-20T04:21:13;101784.34;;;12.45;56.73
60465;BME280;46314;52.392;9.758;2023-05-20T04:23:40;101783.84;;;12.32;57.26
60465;BME280;46314;52.392;9.758;2023-05-20T04:26:06;101775.94;;;11.95;58.52
60465;BME280;46314;52.392;9.758;2023-05-20T04:28:33;101776.34;;;12.33;58.09
60465;BME280;46314;52.392;9.758;2023-05-20T04:31:01;101779.91;;;12.44;57.60
60465;BME280;46314;52.392;9.758;2023-05-20T04:33:27;101781.94;;;12.23;57.94
60465;BME280;46314;52.392;9.758;2023-05-20T04:35:54;101780.31;;;12.06;58.47
60465;BME280;46314;52.392;9.758;2023-05-20T04:38:20;101782.78;;;12.18;58.29
60465;BME280;46314;52.392;9.758;2023-05-20T04:40:47;101782.44;;;12.80;57.48
60465;BME280;46314;52.392;9.758;2023-05-20T04:43:13;101786.75;;;12.02;59.35
60465;BME280;46314;52.392;9.758;2023-05-20T04:45:39;101779.19;;;12.18;59.02
60465;BME280;46314;52.392;9.758;2023-05-20T04:48:07;101777.44;;;12.37;58.58
60465;BME280;46314;52.392;9.758;2023-05-20T04:50:34;101778.81;;;12.35;59.00
60465;BME280;46314;52.392;9.758;2023-05-20T04:53:00;101775.47;;;12.38;59.18
60465;BME280;46314;52.392;9.758;2023-05-20T04:55:26;101774.44;;;12.18;59.69
60465;BME280;46314;52.392;9.758;2023-05-20T04:57:53;101773.06;;;12.71;58.49
60465;BME280;46314;52.392;9.758;2023-05-20T05:00:20;101771.19;;;12.56;58.97
60465;BME280;46314;52.392;9.758;2023-05-20T05:02:46;101772.06;;;12.51;59.10
60465;BME280;46314;52.392;9.758;2023-05-20T05:05:14;101776.28;;;12.88;58.09
60465;BME280;46314;52.392;9.758;2023-05-20T05:07:41;101771.00;;;12.86;57.96
60465;BME280;46314;52.392;9.758;2023-05-20T05:10:08;101766.50;;;13.25;57.04
60465;BME280;46314;52.392;9.758;2023-05-20T05:12:34;101768.31;;;13.11;57.25
60465;BME280;46314;52.392;9.758;2023-05-20T05:15:01;101766.06;;;13.13;57.24
60465;BME280;46314;52.392;9.758;2023-05-20T05:17:27;101775.00;;;12.75;58.20
60465;BME280;46314;52.392;9.758;2023-05-20T05:19:54;101772.81;;;13.41;56.78
60465;BME280;46314;52.392;9.758;2023-05-20T05:22:22;101772.47;;;13.48;56.61
60465;BME280;46314;52.392;9.758;2023-05-20T05:24:48;101773.81;;;13.21;57.60
60465;BME280;46314;52.392;9.758;2023-05-20T05:27:15;101766.91;;;12.74;58.78
60465;BME280;46314;52.392;9.758;2023-05-20T05:29:41;101760.50;;;12.73;58.86
60465;BME280;46314;52.392;9.758;2023-05-20T05:32:08;101759.06;;;12.81;58.79
60465;BME280;46314;52.392;9.758;2023-05-20T05:34:34;101767.28;;;12.96;58.71
60465;BME280;46314;52.392;9.758;2023-05-20T05:37:01;101763.69;;;12.96;58.71
60465;BME280;46314;52.392;9.758;2023-05-20T05:39:29;101767.72;;;12.79;59.29
60465;BME280;46314;52.392;9.758;2023-05-20T05:41:55;101758.09;;;12.96;58.99
60465;BME280;46314;52.392;9.758;2023-05-20T05:44:21;101754.66;;;13.09;58.94
60465;BME280;46314;52.392;9.758;2023-05-20T05:46:48;101761.56;;;13.17;58.39
60465;BME280;46314;52.392;9.758;2023-05-20T05:49:14;101760.22;;;13.43;58.03
60465;BME280;46314;52.392;9.758;2023-05-20T05:51:41;101760.94;;;13.54;57.95
60465;BME280;46314;52.392;9.758;2023-05-20T05:54:07;101773.38;;;13.67;57.57
60465;BME280;46314;52.392;9.758;2023-05-20T05:56:35;101767.81;;;13.67;57.38
60465;BME280;46314;52.392;9.758;2023-05-20T05:59:02;101763.94;;;13.63;58.24
60465;BME280;46314;52.392;9.758;2023-05-20T06:01:29;101769.94;;;13.75;57.52
60465;BME280;46314;52.392;9.758;2023-05-20T06:03:55;101766.84;;;14.01;57.39
60465;BME280;46314;52.392;9.758;2023-05-20T06:06:22;101768.13;;;13.90;57.54
60465;BME280;46314;52.392;9.758;2023-05-20T06:08:48;101767.19;;;13.46;59.19
60465;BME280;46314;52.392;9.758;2023-05-20T06:11:15;101758.53;;;13.48;59.26
60465;BME280;46314;52.392;9.758;2023-05-20T06:13:43;101756.19;;;13.60;58.80
60465;BME280;46314;52.392;9.758;2023-05-20T06:16:09;101755.88;;;13.86;58.39
60465;BME280;46314;52.392;9.758;2023-05-20T06:18:36;101760.84;;;13.64;59.02
60465;BME280;46314;52.392;9.758;2023-05-20T06:21:03;101761.16;;;14.11;57.68
60465;BME280;46314;52.392;9.758;2023-05-20T06:23:30;101762.41;;;14.43;56.60
60465;BME280;46314;52.392;9.758;2023-05-20T06:25:57;101761.78;;;14.27;57.52
60465;BME280;46314;52.392;9.758;2023-05-20T06:28:23;101751.16;;;13.86;58.62
60465;BME280;46314;52.392;9.758;2023-05-20T06:30:52;101756.53;;;15.34;55.04
60465;BME280;46314;52.392;9.758;2023-05-20T06:33:19;101765.84;;;14.59;56.36
60465;BME280;46314;52.392;9.758;2023-05-20T06:35:46;101764.75;;;14.55;56.75
60465;BME280;46314;52.392;9.758;2023-05-20T06:38:12;101753.28;;;14.75;56.45
60465;BME280;46314;52.392;9.758;2023-05-20T06:40:39;101755.28;;;15.41;55.15
60465;BME280;46314;52.392;9.758;2023-05-20T06:43:05;101765.34;;;15.09;55.88
60465;BME280;46314;52.392;9.758;2023-05-20T06:45:32;101750.31;;;15.38;55.21
60465;BME280;46314;52.392;9.758;2023-05-20T06:48:00;101748.28;;;15.57;54.77
60465;BME280;46314;52.392;9.758;2023-05-20T06:50:26;101753.88;;;15.57;55.47
60465;BME280;46314;52.392;9.758;2023-05-20T06:52:53;101759.06;;;15.17;56.92
60465;BME280;46314;52.392;9.758;2023-05-20T06:55:20;101752.91;;;14.63;57.62
60465;BME280;46314;52.392;9.758;2023-05-20T06:57:46;101744.38;;;14.92;56.88
60465;BME280;46314;52.392;9.758;2023-05-20T07:00:13;101742.75;;;15.05;56.77
60465;BME280;46314;52.392;9.758;2023-05-20T07:02:40;101748.41;;;15.66;54.76
60465;BME280;46314;52.392;9.758;2023-05-20T07:05:09;101746.31;;;15.11;55.16
60465;BME280;46314;52.392;9.758;2023-05-20T07:07:36;101738.63;;;15.63;54.69
60465;BME280;46314;52.392;9.758;2023-05-20T07:10:02;101736.16;;;15.48;54.00
60465;BME280;46314;52.392;9.758;2023-05-20T07:12:29;101733.66;;;15.74;53.43
60465;BME280;46314;52.392;9.758;2023-05-20T07:14:55;101729.88;;;15.84;53.18
60465;BME280;46314;52.392;9.758;2023-05-20T07:17:22;101719.69;;;16.16;52.11
60465;BME280;46314;52.392;9.758;2023-05-20T07:19:49;101723.34;;;16.02;52.30
60465;BME280;46314;52.392;9.758;2023-05-20T07:22:17;101722.59;;;16.11;52.50
60465;BME280;46314;52.392;9.758;2023-05-20T07:24:44;101725.19;;;18.45;46.99
60465;BME280;46314;52.392;9.758;2023-05-20T07:27:10;101728.81;;;17.48;47.89
60465;BME280;46314;52.392;9.758;2023-05-20T07:29:37;101727.66;;;16.36;51.17
60465;BME280;46314;52.392;9.758;2023-05-20T07:32:04;101726.03;;;16.07;51.55
60465;BME280;46314;52.392;9.758;2023-05-20T07:34:31;101718.16;;;17.28;49.10
60465;BME280;46314;52.392;9.758;2023-05-20T07:36:57;101718.69;;;15.84;51.65
60465;BME280;46314;52.392;9.758;2023-05-20T07:39:25;101719.94;;;15.78;52.43
60465;BME280;46314;52.392;9.758;2023-05-20T07:41:52;101714.13;;;16.02;52.54
60465;BME280;46314;52.392;9.758;2023-05-20T07:44:18;101716.16;;;16.24;51.95
60465;BME280;46314;52.392;9.758;2023-05-20T07:46:45;101712.53;;;16.82;50.62
60465;BME280;46314;52.392;9.758;2023-05-20T07:49:11;101710.63;;;16.69;50.89
60465;BME280;46314;52.392;9.758;2023-05-20T07:51:38;101722.09;;;15.95;52.84
60465;BME280;46314;52.392;9.758;2023-05-20T07:54:05;101710.16;;;16.31;52.56
60465;BME280;46314;52.392;9.758;2023-05-20T07:56:33;101700.97;;;16.02;52.10
60465;BME280;46314;52.392;9.758;2023-05-20T07:58:59;101705.19;;;15.72;53.01
60465;BME280;46314;52.392;9.758;2023-05-20T08:01:26;101709.53;;;15.64;53.03
60465;BME280;46314;52.392;9.758;2023-05-20T08:03:53;101705.19;;;15.72;52.73
60465;BME280;46314;52.392;9.758;2023-05-20T08:06:20;101705.59;;;15.51;53.90
60465;BME280;46314;52.392;9.758;2023-05-20T08:08:46;101702.00;;;15.79;53.33
60465;BME280;46314;52.392;9.758;2023-05-20T08:11:13;101708.81;;;16.00;52.95
60465;BME280;46314;52.392;9.758;2023-05-20T08:13:41;101704.59;;;15.89;53.32
60465;BME280;46314;52.392;9.758;2023-05-20T08:16:07;101702.16;;;15.55;54.73
60465;BME280;46314;52.392;9.758;2023-05-20T08:18:34;101693.41;;;15.75;53.87
60465;BME280;46314;52.392;9.758;2023-05-20T08:21:01;101694.84;;;15.86;53.54
60465;BME280;46314;52.392;9.758;2023-05-20T08:23:27;101696.72;;;15.77;53.82
60465;BME280;46314;52.392;9.758;2023-05-20T08:25:54;101701.78;;;16.17;53.03
60465;BME280;46314;52.392;9.758;2023-05-20T08:28:20;101692.50;;;15.80;53.79
60465;BME280;46314;52.392;9.758;2023-05-20T08:30:48;101693.28;;;15.52;54.13
60465;BME280;46314;52.392;9.758;2023-05-20T08:33:15;101693.78;;;16.24;52.99
60465;BME280;46314;52.392;9.758;2023-05-20T08:35:41;101698.50;;;15.87;53.77
60465;BME280;46314;52.392;9.758;2023-05-20T08:38:08;101684.59;;;15.82;53.91
60465;BME280;46314;52.392;9.758;2023-05-20T08:40:34;101687.28;;;15.73;54.25
60465;BME280;46314;52.392;9.758;2023-05-20T08:43:01;101685.53;;;15.77;53.92
60465;BME280;46314;52.392;9.758;2023-05-20T08:45:30;101682.44;;;15.79;54.16
60465;BME280;46314;52.392;9.758;2023-05-20T08:47:59;101680.44;;;15.93;53.39
60465;BME280;46314;52.392;9.758;2023-05-20T08:50:26;101681.88;;;16.04;53.37
60465;BME280;46314;52.392;9.758;2023-05-20T08:52:53;101680.09;;;16.08;53.14
60465;BME280;46314;52.392;9.758;2023-05-20T08:55:24;101692.53;;;16.53;52.78
60465;BME280;46314;52.392;9.758;2023-05-20T08:57:51;101686.19;;;16.61;52.48
60465;BME280;46314;52.392;9.758;2023-05-20T09:00:18;101679.53;;;15.84;54.23
60465;BME280;46314;52.392;9.758;2023-05-20T09:02:45;101672.34;;;15.50;55.32
60465;BME280;46314;52.392;9.758;2023-05-20T09:05:14;101680.13;;;15.81;54.98
60465;BME280;46314;52.392;9.758;2023-05-20T09:07:40;101681.28;;;15.94;54.03
60465;BME280;46314;52.392;9.758;2023-05-20T09:10:07;101679.31;;;15.80;54.54
60465;BME280;46314;52.392;9.758;2023-05-20T09:12:34;101672.03;;;16.07;54.04
60465;BME280;46314;52.392;9.758;2023-05-20T09:15:04;101679.50;;;16.12;53.87
60465;BME280;46314;52.392;9.758;2023-05-20T09:17:33;101675.44;;;16.04;54.09
60465;BME280;46314;52.392;9.758;2023-05-20T09:20:00;101682.88;;;16.22;53.70
60465;BME280;46314;52.392;9.758;2023-05-20T09:22:29;101685.88;;;16.26;53.43
60465;BME280;46314;52.392;9.758;2023-05-20T09:24:56;101675.84;;;16.11;53.92
60465;BME280;46314;52.392;9.758;2023-05-20T09:27:22;101687.28;;;15.87;55.14
60465;BME280;46314;52.392;9.758;2023-05-20T09:29:49;101687.19;;;15.78;55.16
60465;BME280;46314;52.392;9.758;2023-05-20T09:32:16;101690.97;;;15.41;56.52
60465;BME280;46314;52.392;9.758;2023-05-20T09:34:46;101686.34;;;15.50;56.20
60465;BME280;46314;52.392;9.758;2023-05-20T09:37:13;101683.16;;;15.10;57.40
60465;BME280;46314;52.392;9.758;2023-05-20T09:39:45;101681.47;;;15.42;56.68
60465;BME280;46314;52.392;9.758;2023-05-20T09:42:17;101684.44;;;15.31;57.32
60465;BME280;46314;52.392;9.758;2023-05-20T09:44:47;101680.22;;;15.62;56.37
60465;BME280;46314;52.392;9.758;2023-05-20T09:47:16;101687.63;;;15.25;57.16
60465;BME280;46314;52.392;9.758;2023-05-20T09:49:44;101677.66;;;15.79;55.66
60465;BME280;46314;52.392;9.758;2023-05-20T09:52:11;101674.63;;;15.62;55.70
60465;BME280;46314;52.392;9.758;2023-05-20T09:54:37;101669.38;;;15.60;55.94
60465;BME280;46314;52.392;9.758;2023-05-20T09:57:06;101672.91;;;15.80;55.71
60465;BME280;46314;52.392;9.758;2023-05-20T09:59:36;101674.09;;;16.15;54.65
60465;BME280;46314;52.392;9.758;2023-05-20T10:02:03;101672.28;;;16.33;54.47
60465;BME280;46314;52.392;9.758;2023-05-20T10:04:31;101677.09;;;16.05;54.70
60465;BME280;46314;52.392;9.758;2023-05-20T10:07:12;101670.03;;;16.07;54.47
60465;BME280;46314;52.392;9.758;2023-05-20T10:09:57;101666.75;;;16.05;54.40
60465;BME280;46314;52.392;9.758;2023-05-20T10:12:32;101664.78;;;16.06;54.60
60465;BME280;46314;52.392;9.758;2023-05-20T10:15:09;101676.41;;;15.71;55.43
60465;BME280;46314;52.392;9.758;2023-05-20T10:17:45;101671.84;;;15.48;55.97
60465;BME280;46314;52.392;9.758;2023-05-20T10:20:13;101671.53;;;15.36;56.71
60465;BME280;46314;52.392;9.758;2023-05-20T10:22:40;101671.50;;;15.49;56.63
60465;BME280;46314;52.392;9.758;2023-05-20T10:25:11;101672.50;;;15.12;57.53
60465;BME280;46314;52.392;9.758;2023-05-20T10:27:46;101666.13;;;15.25;57.67
60465;BME280;46314;52.392;9.758;2023-05-20T10:30:17;101672.84;;;15.38;57.31
60465;BME280;46314;52.392;9.758;2023-05-20T10:32:52;101677.22;;;15.58;57.17
60465;BME280;46314;52.392;9.758;2023-05-20T10:35:23;101668.09;;;15.39;57.49
60465;BME280;46314;52.392;9.758;2023-05-20T10:37:50;101669.22;;;15.65;56.89
60465;BME280;46314;52.392;9.758;2023-05-20T10:40:18;101665.13;;;15.77;56.33
60465;BME280;46314;52.392;9.758;2023-05-20T10:42:46;101666.22;;;16.03;55.95
60465;BME280;46314;52.392;9.758;2023-05-20T10:45:24;101665.19;;;15.71;56.44
60465;BME280;46314;52.392;9.758;2023-05-20T10:47:56;101654.81;;;16.14;55.63
60465;BME280;46314;52.392;9.758;2023-05-20T10:50:27;101669.25;;;16.43;55.07
60465;BME280;46314;52.392;9.758;2023-05-20T10:52:54;101659.22;;;16.28;55.11
60465;BME280;46314;52.392;9.758;2023-05-20T10:55:21;101657.03;;;16.39;54.99
60465;BME280;46314;52.392;9.758;2023-05-20T10:57:50;101650.50;;;16.30;54.96
60465;BME280;46314;52.392;9.758;2023-05-20T11:00:16;101647.44;;;16.18;55.42
60465;BME280;46314;52.392;9.758;2023-05-20T11:02:44;101645.00;;;16.25;55.45
60465;BME280;46314;52.392;9.758;2023-05-20T11:05:11;101652.63;;;16.47;54.87
60465;BME280;46314;52.392;9.758;2023-05-20T11:07:38;101652.81;;;16.51;54.59
60465;BME280;46314;52.392;9.758;2023-05-20T11:10:07;101641.31;;;16.52;54.86
60465;BME280;46314;52.392;9.758;2023-05-20T11:12:34;101640.41;;;16.06;55.92
60465;BME280;46314;52.392;9.758;2023-05-20T11:15:02;101630.34;;;16.05;55.96
60465;BME280;46314;52.392;9.758;2023-05-20T11:17:29;101631.34;;;16.23;55.55
60465;BME280;46314;52.392;9.758;2023-05-20T11:19:56;101632.97;;;16.61;54.78
60465;BME280;46314;52.392;9.758;2023-05-20T11:22:22;101635.56;;;16.57;54.88
60465;BME280;46314;52.392;9.758;2023-05-20T11:24:48;101622.69;;;16.56;55.06
60465;BME280;46314;52.392;9.758;2023-05-20T11:27:15;101626.50;;;16.83;54.75
60465;BME280;46314;52.392;9.758;2023-05-20T11:29:41;101630.03;;;16.43;55.60
60465;BME280;46314;52.392;9.758;2023-05-20T11:32:11;101618.59;;;16.54;55.17
60465;BME280;46314;52.392;9.758;2023-05-20T11:34:38;101620.66;;;16.25;55.71
60465;BME280;46314;52.392;9.758;2023-05-20T11:37:06;101613.88;;;16.86;54.77
60465;BME280;46314;52.392;9.758;2023-05-20T11:39:32;101610.16;;;16.76;54.87
60465;BME280;46314;52.392;9.758;2023-05-20T11:41:59;101612.06;;;16.67;54.98
60465;BME280;46314;52.392;9.758;2023-05-20T11:44:25;101609.69;;;16.83;54.84
60465;BME280;46314;52.392;9.758;2023-05-20T11:46:58;101609.91;;;16.64;54.94
60465;BME280;46314;52.392;9.758;2023-05-20T11:49:27;101602.34;;;16.87;54.81
60465;BME280;46314;52.392;9.758;2023-05-20T11:51:53;101593.75;;;16.83;54.43
60465;BME280;46314;52.392;9.758;2023-05-20T11:54:21;101588.41;;;16.51;55.26
60465;BME280;46314;52.392;9.758;2023-05-20T11:56:48;101596.59;;;16.24;56.37
60465;BME280;46314;52.392;9.758;2023-05-20T11:59:15;101592.22;;;16.32;56.35
60465;BME280;46314;52.392;9.758;2023-05-20T12:01:41;101599.09;;;16.49;55.94
60465;BME280;46314;52.392;9.758;2023-05-20T12:04:08;101584.84;;;16.59;55.43
60465;BME280;46314;52.392;9.758;2023-05-20T12:06:36;101587.28;;;16.83;54.97
60465;BME280;46314;52.392;9.758;2023-05-20T12:09:04;101583.22;;;16.66;55.17
60465;BME280;46314;52.392;9.758;2023-05-20T12:11:30;101576.34;;;17.04;54.54
60465;BME280;46314;52.392;9.758;2023-05-20T12:13:57;101570.53;;;17.32;53.82
60465;BME280;46314;52.392;9.758;2023-05-20T12:16:23;101553.63;;;17.06;53.98
60465;BME280;46314;52.392;9.758;2023-05-20T12:18:50;101567.47;;;17.59;53.19
60465;BME280;46314;52.392;9.758;2023-05-20T12:21:16;101565.06;;;16.87;54.64
60465;BME280;46314;52.392;9.758;2023-05-20T12:23:44;101559.81;;;16.94;54.64
60465;BME280;46314;52.392;9.758;2023-05-20T12:26:10;101551.03;;;17.18;54.00
60465;BME280;46314;52.392;9.758;2023-05-20T12:28:37;101551.22;;;17.30;53.71
60465;BME280;46314;52.392;9.758;2023-05-20T12:31:03;101563.22;;;16.82;54.56
60465;BME280;46314;52.392;9.758;2023-05-20T12:33:30;101560.47;;;17.22;53.91
60465;BME280;46314;52.392;9.758;2023-05-20T12:35:56;101557.47;;;17.27;54.07
60465;BME280;46314;52.392;9.758;2023-05-20T12:38:23;101556.94;;;17.16;54.11
60465;BME280;46314;52.392;9.758;2023-05-20T12:40:51;101555.03;;;17.26;54.05
60465;BME280;46314;52.392;9.758;2023-05-20T12:43:17;101551.81;;;17.01;54.24
60465;BME280;46314;52.392;9.758;2023-05-20T12:45:44;101546.41;;;17.13;54.42
60465;BME280;46314;52.392;9.758;2023-05-20T12:48:10;101540.88;;;16.91;54.86
60465;BME280;46314;52.392;9.758;2023-05-20T12:50:37;101537.16;;;17.13;54.79